sensor_id;sensor_type;location;lat;lon;timestamp;P1;durP1;ratioP1;P2;durP2;ratioP2
73172;SDS011;61388;54.962;73.394;2022-08-19T00:01:45;4.78;;;2.10;;
73172;SDS011;61388;54.962;73.394;2022-08-19T00:04:12;5.17;;;2.17;;
73172;SDS011;61388;54.962;73.394;2022-08-19T00:06:40;3.70;;;2.38;;
73172;SDS011;61388;54.962;73.394;2022-08-19T00:09:25;3.92;;;2.00;;
73172;SDS011;61388;54.962;73.394;2022-08-19T00:11:52;2.83;;;2.20;;
73172;SDS011;61388;54.962;73.394;2022-08-19T00:14:19;3.95;;;2.40;;
73172;SDS011;61388;54.962;73.394;2022-08-19T00:16:46;4.90;;;2.80;;
73172;SDS011;61388;54.962;73.394;2022-08-19T00:19:13;3.88;;;2.05;;
73172;SDS011;61388;54.962;73.394;2022-08-19T00:21:39;5.78;;;2.20;;
73172;SDS011;61388;54.962;73.394;2022-08-19T00:24:06;3.92;;;2.47;;
73172;SDS011;61388;54.962;73.394;2022-08-19T00:26:32;4.57;;;3.05;;
73172;SDS011;61388;54.962;73.394;2022-08-19T00:29:05;4.97;;;2.80;;
73172;SDS011;61388;54.962;73.394;2022-08-19T00:31:31;7.65;;;2.50;;
73172;SDS011;61388;54.962;73.394;2022-08-19T00:33:57;5.45;;;2.90;;
73172;SDS011;61388;54.962;73.394;2022-08-19T00:36:23;3.70;;;2.67;;
73172;SDS011;61388;54.962;73.394;2022-08-19T00:38:54;4.68;;;2.42;;
73172;SDS011;61388;54.962;73.394;2022-08-19T00:41:30;4.33;;;2.60;;
73172;SDS011;61388;54.962;73.394;2022-08-19T00:44:08;4.13;;;2.60;;
73172;SDS011;61388;54.962;73.394;2022-08-19T00:46:54;3.30;;;2.22;;
73172;SDS011;61388;54.962;73.394;2022-08-19T00:49:23;6.70;;;2.60;;
73172;SDS011;61388;54.962;73.394;2022-08-19T00:51:57;5.63;;;2.08;;
73172;SDS011;61388;54.962;73.394;2022-08-19T00:54:25;4.57;;;2.83;;
73172;SDS011;61388;54.962;73.394;2022-08-19T00:56:51;6.40;;;2.80;;
73172;SDS011;61388;54.962;73.394;2022-08-19T00:59:18;5.72;;;2.40;;
73172;SDS011;61388;54.962;73.394;2022-08-19T01:01:44;7.13;;;2.33;;
73172;SDS011;61388;54.962;73.394;2022-08-19T01:04:12;3.22;;;2.10;;
73172;SDS011;61388;54.962;73.394;2022-08-19T01:06:42;6.13;;;2.30;;
73172;SDS011;61388;54.962;73.394;2022-08-19T01:09:08;6.95;;;3.45;;
73172;SDS011;61388;54.962;73.394;2022-08-19T01:11:36;9.40;;;2.80;;
73172;SDS011;61388;54.962;73.394;2022-08-19T01:14:04;3.67;;;2.20;;
73172;SDS011;61388;54.962;73.394;2022-08-19T01:16:40;4.45;;;2.42;;
73172;SDS011;61388;54.962;73.394;2022-08-19T01:19:26;8.37;;;2.63;;
73172;SDS011;61388;54.962;73.394;2022-08-19T01:22:01;7.45;;;3.13;;
73172;SDS011;61388;54.962;73.394;2022-08-19T01:24:30;7.43;;;2.58;;
73172;SDS011;61388;54.962;73.394;2022-08-19T01:26:56;4.57;;;2.33;;
73172;SDS011;61388;54.962;73.394;2022-08-19T01:29:22;3.97;;;2.45;;
73172;SDS011;61388;54.962;73.394;2022-08-19T01:31:48;8.20;;;2.30;;
73172;SDS011;61388;54.962;73.394;2022-08-19T01:34:18;3.90;;;2.45;;
73172;SDS011;61388;54.962;73.394;2022-08-19T01:36:45;9.38;;;3.33;;
73172;SDS011;61388;54.962;73.394;2022-08-19T01:39:14;5.63;;;2.90;;
73172;SDS011;61388;54.962;73.394;2022-08-19T01:41:41;5.35;;;2.63;;
73172;SDS011;61388;54.962;73.394;2022-08-19T01:44:07;4.30;;;2.50;;
73172;SDS011;61388;54.962;73.394;2022-08-19T01:46:34;7.80;;;2.63;;
73172;SDS011;61388;54.962;73.394;2022-08-19T01:49:01;5.22;;;2.10;;
73172;SDS011;61388;54.962;73.394;2022-08-19T01:51:27;6.30;;;2.85;;
73172;SDS011;61388;54.962;73.394;2022-08-19T01:53:53;8.85;;;2.38;;
73172;SDS011;61388;54.962;73.394;2022-08-19T01:56:19;7.67;;;2.50;;
73172;SDS011;61388;54.962;73.394;2022-08-19T01:59:08;8.15;;;2.92;;
73172;SDS011;61388;54.962;73.394;2022-08-19T02:01:31;3.88;;;2.28;;
73172;SDS011;61388;54.962;73.394;2022-08-19T02:03:58;6.72;;;2.78;;
73172;SDS011;61388;54.962;73.394;2022-08-19T02:06:26;4.40;;;2.40;;
73172;SDS011;61388;54.962;73.394;2022-08-19T02:08:53;5.33;;;2.43;;
73172;SDS011;61388;54.962;73.394;2022-08-19T02:11:23;10.20;;;2.90;;
73172;SDS011;61388;54.962;73.394;2022-08-19T02:13:49;5.97;;;2.70;;
73172;SDS011;61388;54.962;73.394;2022-08-19T02:16:16;6.43;;;3.05;;
73172;SDS011;61388;54.962;73.394;2022-08-19T02:18:42;7.57;;;2.53;;
73172;SDS011;61388;54.962;73.394;2022-08-19T02:21:09;6.67;;;2.70;;
73172;SDS011;61388;54.962;73.394;2022-08-19T02:23:37;5.32;;;2.83;;
73172;SDS011;61388;54.962;73.394;2022-08-19T02:26:04;5.72;;;2.65;;
73172;SDS011;61388;54.962;73.394;2022-08-19T02:28:30;8.50;;;3.20;;
73172;SDS011;61388;54.962;73.394;2022-08-19T02:30:56;9.32;;;3.08;;
73172;SDS011;61388;54.962;73.394;2022-08-19T02:33:22;10.53;;;3.00;;
73172;SDS011;61388;54.962;73.394;2022-08-19T02:35:48;7.63;;;3.33;;
73172;SDS011;61388;54.962;73.394;2022-08-19T02:38:14;11.55;;;3.90;;
73172;SDS011;61388;54.962;73.394;2022-08-19T02:41:00;9.82;;;3.38;;
73172;SDS011;61388;54.962;73.394;2022-08-19T02:43:32;10.05;;;3.17;;
73172;SDS011;61388;54.962;73.394;2022-08-19T02:46:00;8.07;;;3.50;;
73172;SDS011;61388;54.962;73.394;2022-08-19T02:48:27;10.27;;;3.65;;
73172;SDS011;61388;54.962;73.394;2022-08-19T02:51:01;8.15;;;3.45;;
73172;SDS011;61388;54.962;73.394;2022-08-19T02:53:34;10.02;;;3.45;;
73172;SDS011;61388;54.962;73.394;2022-08-19T02:56:00;9.82;;;3.30;;
73172;SDS011;61388;54.962;73.394;2022-08-19T02:58:26;11.23;;;2.93;;
73172;SDS011;61388;54.962;73.394;2022-08-19T03:00:57;10.13;;;3.70;;
73172;SDS011;61388;54.962;73.394;2022-08-19T03:03:29;10.45;;;3.53;;
73172;SDS011;61388;54.962;73.394;2022-08-19T03:06:14;7.25;;;2.95;;
73172;SDS011;61388;54.962;73.394;2022-08-19T03:08:41;8.75;;;3.10;;
73172;SDS011;61388;54.962;73.394;2022-08-19T03:11:12;7.67;;;3.90;;
73172;SDS011;61388;54.962;73.394;2022-08-19T03:13:44;8.40;;;3.67;;
73172;SDS011;61388;54.962;73.394;2022-08-19T03:16:11;12.10;;;5.00;;
73172;SDS011;61388;54.962;73.394;2022-08-19T03:18:42;11.60;;;4.75;;
73172;SDS011;61388;54.962;73.394;2022-08-19T03:21:17;8.02;;;4.20;;
73172;SDS011;61388;54.962;73.394;2022-08-19T03:23:48;9.50;;;3.60;;
73172;SDS011;61388;54.962;73.394;2022-08-19T03:26:14;8.93;;;3.75;;
73172;SDS011;61388;54.962;73.394;2022-08-19T03:28:44;6.60;;;3.80;;
73172;SDS011;61388;54.962;73.394;2022-08-19T03:31:12;10.55;;;4.30;;
73172;SDS011;61388;54.962;73.394;2022-08-19T03:33:39;9.50;;;4.90;;
73172;SDS011;61388;54.962;73.394;2022-08-19T03:36:10;8.70;;;3.57;;
73172;SDS011;61388;54.962;73.394;2022-08-19T03:38:37;10.40;;;4.15;;
73172;SDS011;61388;54.962;73.394;2022-08-19T03:41:05;9.35;;;3.97;;
73172;SDS011;61388;54.962;73.394;2022-08-19T03:43:42;8.93;;;3.83;;
73172;SDS011;61388;54.962;73.394;2022-08-19T03:46:12;17.25;;;3.80;;
73172;SDS011;61388;54.962;73.394;2022-08-19T03:48:39;10.43;;;3.63;;
73172;SDS011;61388;54.962;73.394;2022-08-19T03:51:17;10.40;;;3.90;;
73172;SDS011;61388;54.962;73.394;2022-08-19T03:53:43;10.40;;;4.43;;
73172;SDS011;61388;54.962;73.394;2022-08-19T03:56:19;11.25;;;3.80;;
73172;SDS011;61388;54.962;73.394;2022-08-19T03:58:45;6.65;;;3.13;;
73172;SDS011;61388;54.962;73.394;2022-08-19T04:01:13;12.70;;;3.70;;
73172;SDS011;61388;54.962;73.394;2022-08-19T04:03:39;11.27;;;4.10;;
73172;SDS011;61388;54.962;73.394;2022-08-19T04:06:16;11.98;;;4.30;;
73172;SDS011;61388;54.962;73.394;2022-08-19T04:08:46;12.20;;;4.82;;
73172;SDS011;61388;54.962;73.394;2022-08-19T04:11:14;9.68;;;4.07;;
73172;SDS011;61388;54.962;73.394;2022-08-19T04:13:41;12.03;;;4.13;;
73172;SDS011;61388;54.962;73.394;2022-08-19T04:16:09;11.43;;;4.95;;
73172;SDS011;61388;54.962;73.394;2022-08-19T04:18:36;11.40;;;5.13;;
73172;SDS011;61388;54.962;73.394;2022-08-19T04:21:03;8.43;;;4.43;;
73172;SDS011;61388;54.962;73.394;2022-08-19T04:23:34;9.23;;;5.55;;
73172;SDS011;61388;54.962;73.394;2022-08-19T04:26:02;12.67;;;7.40;;
73172;SDS011;61388;54.962;73.394;2022-08-19T04:28:28;8.30;;;3.90;;
73172;SDS011;61388;54.962;73.394;2022-08-19T04:30:54;7.65;;;3.72;;
73172;SDS011;61388;54.962;73.394;2022-08-19T04:33:21;7.15;;;4.35;;
73172;SDS011;61388;54.962;73.394;2022-08-19T04:35:48;8.02;;;4.22;;
73172;SDS011;61388;54.962;73.394;2022-08-19T04:38:20;18.63;;;3.77;;
73172;SDS011;61388;54.962;73.394;2022-08-19T04:40:49;7.28;;;3.42;;
73172;SDS011;61388;54.962;73.394;2022-08-19T04:43:33;6.72;;;3.53;;
73172;SDS011;61388;54.962;73.394;2022-08-19T04:46:08;10.20;;;3.92;;
73172;SDS011;61388;54.962;73.394;2022-08-19T04:48:36;9.50;;;3.60;;
73172;SDS011;61388;54.962;73.394;2022-08-19T04:51:05;5.90;;;2.90;;
73172;SDS011;61388;54.962;73.394;2022-08-19T04:53:33;6.78;;;2.80;;
73172;SDS011;61388;54.962;73.394;2022-08-19T04:55:59;17.52;;;3.30;;
73172;SDS011;61388;54.962;73.394;2022-08-19T04:58:34;12.48;;;3.33;;
73172;SDS011;61388;54.962;73.394;2022-08-19T05:01:12;7.03;;;2.63;;
73172;SDS011;61388;54.962;73.394;2022-08-19T05:03:38;9.63;;;3.40;;
73172;SDS011;61388;54.962;73.394;2022-08-19T05:06:09;8.00;;;3.28;;
73172;SDS011;61388;54.962;73.394;2022-08-19T05:08:36;9.25;;;2.75;;
73172;SDS011;61388;54.962;73.394;2022-08-19T05:11:07;7.10;;;3.20;;
73172;SDS011;61388;54.962;73.394;2022-08-19T05:13:34;8.63;;;4.55;;
73172;SDS011;61388;54.962;73.394;2022-08-19T05:16:00;6.87;;;3.93;;
73172;SDS011;61388;54.962;73.394;2022-08-19T05:18:29;9.27;;;3.75;;
73172;SDS011;61388;54.962;73.394;2022-08-19T05:21:24;17.60;;;4.05;;
73172;SDS011;61388;54.962;73.394;2022-08-19T05:24:08;9.00;;;3.47;;
73172;SDS011;61388;54.962;73.394;2022-08-19T05:26:45;11.13;;;3.87;;
73172;SDS011;61388;54.962;73.394;2022-08-19T05:29:22;9.05;;;3.63;;
73172;SDS011;61388;54.962;73.394;2022-08-19T05:31:49;10.00;;;3.70;;
73172;SDS011;61388;54.962;73.394;2022-08-19T05:34:16;9.23;;;3.45;;
73172;SDS011;61388;54.962;73.394;2022-08-19T05:36:43;12.95;;;3.30;;
73172;SDS011;61388;54.962;73.394;2022-08-19T05:39:15;20.60;;;6.03;;
73172;SDS011;61388;54.962;73.394;2022-08-19T05:41:45;6.22;;;3.85;;
73172;SDS011;61388;54.962;73.394;2022-08-19T05:44:21;10.10;;;4.85;;
73172;SDS011;61388;54.962;73.394;2022-08-19T05:46:47;13.10;;;5.28;;
73172;SDS011;61388;54.962;73.394;2022-08-19T05:49:24;15.55;;;4.13;;
73172;SDS011;61388;54.962;73.394;2022-08-19T05:51:51;9.03;;;3.67;;
73172;SDS011;61388;54.962;73.394;2022-08-19T05:54:27;8.80;;;4.63;;
73172;SDS011;61388;54.962;73.394;2022-08-19T05:56:53;12.18;;;3.67;;
73172;SDS011;61388;54.962;73.394;2022-08-19T05:59:20;10.80;;;3.40;;
73172;SDS011;61388;54.962;73.394;2022-08-19T06:01:48;7.88;;;3.38;;
73172;SDS011;61388;54.962;73.394;2022-08-19T06:04:18;12.75;;;5.68;;
73172;SDS011;61388;54.962;73.394;2022-08-19T06:06:45;8.90;;;4.63;;
73172;SDS011;61388;54.962;73.394;2022-08-19T06:09:17;8.32;;;3.40;;
73172;SDS011;61388;54.962;73.394;2022-08-19T06:11:45;6.53;;;3.30;;
73172;SDS011;61388;54.962;73.394;2022-08-19T06:14:21;10.02;;;4.35;;
73172;SDS011;61388;54.962;73.394;2022-08-19T06:16:51;9.90;;;3.83;;
73172;SDS011;61388;54.962;73.394;2022-08-19T06:19:19;5.47;;;3.15;;
73172;SDS011;61388;54.962;73.394;2022-08-19T06:21:54;6.28;;;3.10;;
73172;SDS011;61388;54.962;73.394;2022-08-19T06:24:21;5.90;;;2.78;;
73172;SDS011;61388;54.962;73.394;2022-08-19T06:26:50;6.25;;;3.10;;
73172;SDS011;61388;54.962;73.394;2022-08-19T06:29:19;11.73;;;5.20;;
73172;SDS011;61388;54.962;73.394;2022-08-19T06:31:56;16.92;;;4.45;;
73172;SDS011;61388;54.962;73.394;2022-08-19T06:34:30;12.75;;;3.60;;
73172;SDS011;61388;54.962;73.394;2022-08-19T06:36:58;14.55;;;4.50;;
73172;SDS011;61388;54.962;73.394;2022-08-19T06:39:29;11.07;;;3.30;;
73172;SDS011;61388;54.962;73.394;2022-08-19T06:42:05;11.93;;;3.75;;
73172;SDS011;61388;54.962;73.394;2022-08-19T06:44:35;12.07;;;3.45;;
73172;SDS011;61388;54.962;73.394;2022-08-19T06:47:03;16.75;;;3.25;;
73172;SDS011;61388;54.962;73.394;2022-08-19T06:49:29;9.32;;;3.00;;
73172;SDS011;61388;54.962;73.394;2022-08-19T06:51:56;14.50;;;3.40;;
73172;SDS011;61388;54.962;73.394;2022-08-19T06:54:23;13.50;;;2.87;;
73172;SDS011;61388;54.962;73.394;2022-08-19T06:56:52;23.13;;;3.70;;
73172;SDS011;61388;54.962;73.394;2022-08-19T06:59:19;14.80;;;3.13;;
73172;SDS011;61388;54.962;73.394;2022-08-19T07:01:47;17.98;;;2.83;;
73172;SDS011;61388;54.962;73.394;2022-08-19T07:04:19;6.57;;;2.80;;
73172;SDS011;61388;54.962;73.394;2022-08-19T07:07:02;9.67;;;2.77;;
73172;SDS011;61388;54.962;73.394;2022-08-19T07:09:28;13.60;;;4.38;;
73172;SDS011;61388;54.962;73.394;2022-08-19T07:11:55;13.05;;;4.55;;
73172;SDS011;61388;54.962;73.394;2022-08-19T07:14:23;13.05;;;4.72;;
73172;SDS011;61388;54.962;73.394;2022-08-19T07:16:51;18.25;;;4.70;;
73172;SDS011;61388;54.962;73.394;2022-08-19T07:19:24;15.60;;;4.60;;
73172;SDS011;61388;54.962;73.394;2022-08-19T07:21:52;10.60;;;5.00;;
73172;SDS011;61388;54.962;73.394;2022-08-19T07:24:24;11.38;;;3.55;;
73172;SDS011;61388;54.962;73.394;2022-08-19T07:26:51;9.60;;;3.70;;
73172;SDS011;61388;54.962;73.394;2022-08-19T07:29:18;13.52;;;5.88;;
73172;SDS011;61388;54.962;73.394;2022-08-19T07:31:44;12.63;;;4.33;;
73172;SDS011;61388;54.962;73.394;2022-08-19T07:34:12;11.40;;;4.63;;
73172;SDS011;61388;54.962;73.394;2022-08-19T07:36:43;12.35;;;4.20;;
73172;SDS011;61388;54.962;73.394;2022-08-19T07:39:13;18.63;;;9.43;;
73172;SDS011;61388;54.962;73.394;2022-08-19T07:41:40;14.48;;;3.85;;
73172;SDS011;61388;54.962;73.394;2022-08-19T07:44:06;10.37;;;3.23;;
73172;SDS011;61388;54.962;73.394;2022-08-19T07:46:35;14.50;;;4.00;;
73172;SDS011;61388;54.962;73.394;2022-08-19T07:49:11;11.77;;;3.65;;
73172;SDS011;61388;54.962;73.394;2022-08-19T07:51:43;10.68;;;3.85;;
73172;SDS011;61388;54.962;73.394;2022-08-19T07:54:10;9.38;;;3.22;;
73172;SDS011;61388;54.962;73.394;2022-08-19T07:56:37;14.10;;;3.80;;
73172;SDS011;61388;54.962;73.394;2022-08-19T07:59:03;15.70;;;4.53;;
73172;SDS011;61388;54.962;73.394;2022-08-19T08:01:30;12.90;;;3.67;;
73172;SDS011;61388;54.962;73.394;2022-08-19T08:03:57;16.88;;;4.10;;
73172;SDS011;61388;54.962;73.394;2022-08-19T08:06:46;12.30;;;2.97;;
73172;SDS011;61388;54.962;73.394;2022-08-19T08:09:33;7.20;;;3.00;;
73172;SDS011;61388;54.962;73.394;2022-08-19T08:12:01;7.00;;;2.83;;
73172;SDS011;61388;54.962;73.394;2022-08-19T08:14:35;11.30;;;2.90;;
73172;SDS011;61388;54.962;73.394;2022-08-19T08:17:06;6.03;;;2.80;;
73172;SDS011;61388;54.962;73.394;2022-08-19T08:19:32;8.98;;;2.90;;
73172;SDS011;61388;54.962;73.394;2022-08-19T08:21:59;6.50;;;3.60;;
73172;SDS011;61388;54.962;73.394;2022-08-19T08:24:30;14.10;;;3.65;;
73172;SDS011;61388;54.962;73.394;2022-08-19T08:27:01;19.02;;;4.47;;
73172;SDS011;61388;54.962;73.394;2022-08-19T08:29:33;22.30;;;4.97;;
73172;SDS011;61388;54.962;73.394;2022-08-19T08:32:00;19.38;;;4.55;;
73172;SDS011;61388;54.962;73.394;2022-08-19T08:34:27;17.80;;;4.73;;
73172;SDS011;61388;54.962;73.394;2022-08-19T08:36:53;24.77;;;5.10;;
73172;SDS011;61388;54.962;73.394;2022-08-19T08:39:29;18.77;;;4.63;;
73172;SDS011;61388;54.962;73.394;2022-08-19T08:42:05;16.23;;;4.47;;
73172;SDS011;61388;54.962;73.394;2022-08-19T08:44:52;17.50;;;4.20;;
73172;SDS011;61388;54.962;73.394;2022-08-19T08:47:19;20.97;;;7.60;;
73172;SDS011;61388;54.962;73.394;2022-08-19T08:54:47;27.38;;;9.57;;
73172;SDS011;61388;54.962;73.394;2022-08-19T08:57:15;20.38;;;7.50;;
73172;SDS011;61388;54.962;73.394;2022-08-19T08:59:43;25.30;;;8.20;;
73172;SDS011;61388;54.962;73.394;2022-08-19T09:02:11;23.35;;;8.00;;
73172;SDS011;61388;54.962;73.394;2022-08-19T09:04:37;14.25;;;6.63;;
73172;SDS011;61388;54.962;73.394;2022-08-19T09:09:42;10.07;;;4.47;;
73172;SDS011;61388;54.962;73.394;2022-08-19T09:17:13;27.42;;;9.75;;
73172;SDS011;61388;54.962;73.394;2022-08-19T09:20:03;11.52;;;4.88;;
73172;SDS011;61388;54.962;73.394;2022-08-19T09:22:43;7.72;;;4.22;;
73172;SDS011;61388;54.962;73.394;2022-08-19T09:25:11;9.63;;;4.00;;
73172;SDS011;61388;54.962;73.394;2022-08-19T09:27:38;10.10;;;4.47;;
73172;SDS011;61388;54.962;73.394;2022-08-19T09:30:05;11.27;;;4.88;;
73172;SDS011;61388;54.962;73.394;2022-08-19T09:32:33;11.95;;;4.88;;
73172;SDS011;61388;54.962;73.394;2022-08-19T09:34:59;11.73;;;5.15;;
73172;SDS011;61388;54.962;73.394;2022-08-19T09:37:25;15.77;;;4.70;;
73172;SDS011;61388;54.962;73.394;2022-08-19T09:39:52;11.77;;;4.78;;
73172;SDS011;61388;54.962;73.394;2022-08-19T09:42:22;16.10;;;5.38;;
73172;SDS011;61388;54.962;73.394;2022-08-19T09:44:48;12.68;;;5.70;;
73172;SDS011;61388;54.962;73.394;2022-08-19T09:47:19;10.10;;;5.95;;
73172;SDS011;61388;54.962;73.394;2022-08-19T09:49:46;15.83;;;5.73;;
73172;SDS011;61388;54.962;73.394;2022-08-19T09:52:14;14.77;;;6.28;;
73172;SDS011;61388;54.962;73.394;2022-08-19T09:54:41;19.30;;;5.93;;
73172;SDS011;61388;54.962;73.394;2022-08-19T09:57:07;23.75;;;7.55;;
73172;SDS011;61388;54.962;73.394;2022-08-19T09:59:33;21.48;;;7.88;;
73172;SDS011;61388;54.962;73.394;2022-08-19T10:02:09;14.97;;;6.20;;
73172;SDS011;61388;54.962;73.394;2022-08-19T10:04:36;22.17;;;6.22;;
73172;SDS011;61388;54.962;73.394;2022-08-19T10:07:20;27.17;;;8.10;;
73172;SDS011;61388;54.962;73.394;2022-08-19T10:09:48;19.80;;;7.38;;
73172;SDS011;61388;54.962;73.394;2022-08-19T10:12:14;14.52;;;9.43;;
73172;SDS011;61388;54.962;73.394;2022-08-19T10:14:51;17.37;;;9.90;;
73172;SDS011;61388;54.962;73.394;2022-08-19T10:17:23;19.02;;;8.70;;
73172;SDS011;61388;54.962;73.394;2022-08-19T10:19:51;11.02;;;6.30;;
73172;SDS011;61388;54.962;73.394;2022-08-19T10:22:27;13.57;;;9.63;;
73172;SDS011;61388;54.962;73.394;2022-08-19T10:24:53;12.70;;;6.82;;
73172;SDS011;61388;54.962;73.394;2022-08-19T10:27:19;12.87;;;6.60;;
73172;SDS011;61388;54.962;73.394;2022-08-19T10:29:55;12.07;;;9.63;;
73172;SDS011;61388;54.962;73.394;2022-08-19T10:32:21;14.30;;;12.77;;
73172;SDS011;61388;54.962;73.394;2022-08-19T10:34:47;22.73;;;14.68;;
73172;SDS011;61388;54.962;73.394;2022-08-19T10:37:15;16.45;;;14.73;;
73172;SDS011;61388;54.962;73.394;2022-08-19T10:39:45;25.47;;;22.63;;
73172;SDS011;61388;54.962;73.394;2022-08-19T10:42:13;31.92;;;24.27;;
73172;SDS011;61388;54.962;73.394;2022-08-19T10:44:39;22.30;;;19.73;;
73172;SDS011;61388;54.962;73.394;2022-08-19T10:47:06;24.25;;;21.63;;
73172;SDS011;61388;54.962;73.394;2022-08-19T10:49:32;22.52;;;19.33;;
73172;SDS011;61388;54.962;73.394;2022-08-19T10:52:27;28.80;;;17.10;;
73172;SDS011;61388;54.962;73.394;2022-08-19T10:55:03;25.90;;;22.88;;
73172;SDS011;61388;54.962;73.394;2022-08-19T10:57:48;19.13;;;17.08;;
73172;SDS011;61388;54.962;73.394;2022-08-19T11:00:14;19.65;;;17.42;;
73172;SDS011;61388;54.962;73.394;2022-08-19T11:02:40;23.05;;;14.05;;
73172;SDS011;61388;54.962;73.394;2022-08-19T11:05:07;20.13;;;10.57;;
73172;SDS011;61388;54.962;73.394;2022-08-19T11:07:37;16.42;;;9.48;;
73172;SDS011;61388;54.962;73.394;2022-08-19T11:10:03;33.95;;;14.15;;
73172;SDS011;61388;54.962;73.394;2022-08-19T11:12:30;18.75;;;13.30;;
73172;SDS011;61388;54.962;73.394;2022-08-19T11:14:56;27.65;;;15.45;;
73172;SDS011;61388;54.962;73.394;2022-08-19T11:17:22;28.90;;;14.53;;
73172;SDS011;61388;54.962;73.394;2022-08-19T11:19:49;28.90;;;16.15;;
73172;SDS011;61388;54.962;73.394;2022-08-19T11:22:15;32.22;;;19.30;;
73172;SDS011;61388;54.962;73.394;2022-08-19T11:24:42;24.38;;;14.93;;
73172;SDS011;61388;54.962;73.394;2022-08-19T11:27:09;18.10;;;13.88;;
73172;SDS011;61388;54.962;73.394;2022-08-19T11:29:35;15.70;;;11.73;;
73172;SDS011;61388;54.962;73.394;2022-08-19T11:32:06;16.52;;;12.60;;
73172;SDS011;61388;54.962;73.394;2022-08-19T11:34:40;20.92;;;19.17;;
73172;SDS011;61388;54.962;73.394;2022-08-19T11:37:06;12.88;;;11.68;;
73172;SDS011;61388;54.962;73.394;2022-08-19T11:39:32;13.35;;;11.93;;
73172;SDS011;61388;54.962;73.394;2022-08-19T11:42:08;12.43;;;11.23;;
73172;SDS011;61388;54.962;73.394;2022-08-19T11:44:53;19.10;;;14.88;;
73172;SDS011;61388;54.962;73.394;2022-08-19T11:47:20;14.35;;;12.95;;
73172;SDS011;61388;54.962;73.394;2022-08-19T11:49:47;15.77;;;14.40;;
73172;SDS011;61388;54.962;73.394;2022-08-19T11:52:13;16.75;;;15.25;;
73172;SDS011;61388;54.962;73.394;2022-08-19T11:54:39;16.50;;;15.03;;
73172;SDS011;61388;54.962;73.394;2022-08-19T11:57:05;14.93;;;13.13;;
73172;SDS011;61388;54.962;73.394;2022-08-19T11:59:42;17.10;;;15.70;;
73172;SDS011;61388;54.962;73.394;2022-08-19T12:02:12;12.75;;;11.52;;
73172;SDS011;61388;54.962;73.394;2022-08-19T12:04:41;15.18;;;12.38;;
73172;SDS011;61388;54.962;73.394;2022-08-19T12:07:07;13.70;;;11.67;;
73172;SDS011;61388;54.962;73.394;2022-08-19T12:09:33;18.73;;;16.92;;
73172;SDS011;61388;54.962;73.394;2022-08-19T12:12:00;16.02;;;13.38;;
73172;SDS011;61388;54.962;73.394;2022-08-19T12:14:27;18.55;;;16.85;;
73172;SDS011;61388;54.962;73.394;2022-08-19T12:16:55;17.23;;;15.53;;
73172;SDS011;61388;54.962;73.394;2022-08-19T12:19:21;12.80;;;11.52;;
73172;SDS011;61388;54.962;73.394;2022-08-19T12:21:48;11.90;;;10.80;;
73172;SDS011;61388;54.962;73.394;2022-08-19T12:24:24;10.38;;;9.27;;
73172;SDS011;61388;54.962;73.394;2022-08-19T12:26:51;11.25;;;9.35;;
73172;SDS011;61388;54.962;73.394;2022-08-19T12:29:17;12.33;;;9.43;;
73172;SDS011;61388;54.962;73.394;2022-08-19T12:31:43;13.55;;;10.10;;
73172;SDS011;61388;54.962;73.394;2022-08-19T12:34:09;10.45;;;9.32;;
73172;SDS011;61388;54.962;73.394;2022-08-19T12:36:35;16.80;;;15.43;;
73172;SDS011;61388;54.962;73.394;2022-08-19T12:39:02;18.50;;;17.08;;
73172;SDS011;61388;54.962;73.394;2022-08-19T12:41:29;20.60;;;19.13;;
73172;SDS011;61388;54.962;73.394;2022-08-19T12:43:55;19.33;;;17.83;;
73172;SDS011;61388;54.962;73.394;2022-08-19T12:46:21;21.23;;;19.65;;
73172;SDS011;61388;54.962;73.394;2022-08-19T12:48:52;22.27;;;20.55;;
73172;SDS011;61388;54.962;73.394;2022-08-19T12:51:18;24.58;;;22.88;;
73172;SDS011;61388;54.962;73.394;2022-08-19T12:53:46;25.23;;;23.27;;
73172;SDS011;61388;54.962;73.394;2022-08-19T12:56:13;15.55;;;13.95;;
73172;SDS011;61388;54.962;73.394;2022-08-19T12:58:40;14.27;;;12.90;;
73172;SDS011;61388;54.962;73.394;2022-08-19T13:01:08;24.27;;;22.17;;
73172;SDS011;61388;54.962;73.394;2022-08-19T13:03:39;22.73;;;20.63;;
73172;SDS011;61388;54.962;73.394;2022-08-19T13:06:08;18.73;;;17.00;;
73172;SDS011;61388;54.962;73.394;2022-08-19T13:08:39;29.20;;;26.52;;
73172;SDS011;61388;54.962;73.394;2022-08-19T13:11:12;29.95;;;27.38;;
73172;SDS011;61388;54.962;73.394;2022-08-19T13:13:40;26.83;;;24.70;;
73172;SDS011;61388;54.962;73.394;2022-08-19T13:16:15;26.85;;;24.40;;
73172;SDS011;61388;54.962;73.394;2022-08-19T13:18:42;18.93;;;16.97;;
73172;SDS011;61388;54.962;73.394;2022-08-19T13:21:10;20.83;;;18.85;;
73172;SDS011;61388;54.962;73.394;2022-08-19T13:23:39;17.77;;;14.07;;
73172;SDS011;61388;54.962;73.394;2022-08-19T13:26:11;23.02;;;15.13;;
73172;SDS011;61388;54.962;73.394;2022-08-19T13:28:37;19.98;;;13.57;;
73172;SDS011;61388;54.962;73.394;2022-08-19T13:31:32;12.40;;;11.03;;
73172;SDS011;61388;54.962;73.394;2022-08-19T13:34:26;19.92;;;18.10;;
73172;SDS011;61388;54.962;73.394;2022-08-19T13:36:53;17.52;;;15.73;;
73172;SDS011;61388;54.962;73.394;2022-08-19T13:39:19;15.20;;;13.32;;
73172;SDS011;61388;54.962;73.394;2022-08-19T13:41:46;15.77;;;14.15;;
73172;SDS011;61388;54.962;73.394;2022-08-19T13:44:15;17.07;;;15.37;;
73172;SDS011;61388;54.962;73.394;2022-08-19T13:46:44;21.75;;;19.20;;
73172;SDS011;61388;54.962;73.394;2022-08-19T13:49:11;26.73;;;23.95;;
73172;SDS011;61388;54.962;73.394;2022-08-19T13:51:37;36.67;;;33.70;;
73172;SDS011;61388;54.962;73.394;2022-08-19T13:54:06;34.78;;;32.13;;
73172;SDS011;61388;54.962;73.394;2022-08-19T13:56:32;20.07;;;17.93;;
73172;SDS011;61388;54.962;73.394;2022-08-19T13:58:58;23.13;;;21.33;;
73172;SDS011;61388;54.962;73.394;2022-08-19T14:01:24;27.00;;;24.75;;
73172;SDS011;61388;54.962;73.394;2022-08-19T14:03:50;38.35;;;35.55;;
73172;SDS011;61388;54.962;73.394;2022-08-19T14:06:16;43.38;;;40.00;;
73172;SDS011;61388;54.962;73.394;2022-08-19T14:08:47;35.03;;;32.23;;
73172;SDS011;61388;54.962;73.394;2022-08-19T14:11:13;34.25;;;31.50;;
73172;SDS011;61388;54.962;73.394;2022-08-19T14:13:40;221.93;;;210.02;;
73172;SDS011;61388;54.962;73.394;2022-08-19T14:16:07;320.27;;;303.13;;
73172;SDS011;61388;54.962;73.394;2022-08-19T14:18:33;303.20;;;286.67;;
73172;SDS011;61388;54.962;73.394;2022-08-19T14:20:59;219.23;;;206.97;;
73172;SDS011;61388;54.962;73.394;2022-08-19T14:23:35;134.98;;;127.15;;
73172;SDS011;61388;54.962;73.394;2022-08-19T14:26:13;183.10;;;172.70;;
73172;SDS011;61388;54.962;73.394;2022-08-19T14:28:39;168.40;;;157.80;;
73172;SDS011;61388;54.962;73.394;2022-08-19T14:31:08;116.05;;;108.93;;
73172;SDS011;61388;54.962;73.394;2022-08-19T14:33:40;161.97;;;151.77;;
73172;SDS011;61388;54.962;73.394;2022-08-19T14:36:06;219.85;;;206.77;;
73172;SDS011;61388;54.962;73.394;2022-08-19T14:38:32;247.75;;;233.13;;
73172;SDS011;61388;54.962;73.394;2022-08-19T14:41:09;220.90;;;207.52;;
73172;SDS011;61388;54.962;73.394;2022-08-19T14:43:43;201.35;;;189.43;;
73172;SDS011;61388;54.962;73.394;2022-08-19T14:46:14;202.80;;;190.67;;
73172;SDS011;61388;54.962;73.394;2022-08-19T14:48:41;203.35;;;191.57;;